Time,TemperatureF,DewpointF,PressureIn,WindDirection,WindDirectionDegrees,WindSpeedMPH,WindSpeedGustMPH,Humidity,HourlyPrecipIn,Conditions,Clouds,dailyrainin,SolarRadiationWatts/m^2,SoftwareType,DateUTC
2013-03-08 00:11:00,37.0,14.0,29.80,North,360,0.0,0.0,39,0.00,,,0.00,0,weatherlink.com 1.10,2013-03-08 07:11:00,
2013-03-08 00:26:00,36.9,13.0,29.80,North,360,0.0,0.0,38,0.00,,,0.00,0,weatherlink.com 1.10,2013-03-08 07:26:00,
2013-03-08 00:41:00,36.0,14.0,29.80,North,360,0.0,1.0,41,0.00,,,0.00,0,weatherlink.com 1.10,2013-03-08 07:41:00,
2013-03-08 00:56:00,37.3,14.0,29.79,North,360,0.0,1.0,39,0.00,,,0.00,0,weatherlink.com 1.10,2013-03-08 07:56:00,
2013-03-08 01:11:00,38.0,18.0,29.79,North,360,1.0,3.0,44,0.00,,,0.00,0,weatherlink.com 1.10,2013-03-08 08:11:00,
2013-03-08 01:26:00,31.2,15.0,29.80,North,360,0.0,1.0,52,0.00,,,0.00,0,weatherlink.com 1.10,2013-03-08 08:26:00,
2013-03-08 01:41:00,32.6,15.0,29.80,North,360,0.0,2.0,48,0.00,,,0.00,0,weatherlink.com 1.10,2013-03-08 08:41:00,
2013-03-08 01:56:00,34.3,15.0,29.79,North,360,0.0,2.0,45,0.00,,,0.00,0,weatherlink.com 1.10,2013-03-08 08:56:00,
2013-03-08 02:11:00,34.4,15.0,29.79,North,360,1.0,2.0,45,0.00,,,0.00,0,weatherlink.com 1.10,2013-03-08 09:11:00,
2013-03-08 02:26:00,35.5,15.0,29.77,North,360,0.0,3.0,44,0.00,,,0.00,0,weatherlink.com 1.10,2013-03-08 09:26:00,
2013-03-08 02:41:00,35.3,15.0,29.77,North,360,2.0,2.0,44,0.00,,,0.00,0,weatherlink.com 1.10,2013-03-08 09:41:00,
2013-03-08 02:56:00,35.6,15.0,29.77,North,360,0.0,2.0,43,0.00,,,0.00,0,weatherlink.com 1.10,2013-03-08 09:56:00,
2013-03-08 03:11:00,34.7,15.0,29.76,North,360,0.0,2.0,44,0.00,,,0.00,0,weatherlink.com 1.10,2013-03-08 10:11:00,
2013-03-08 03:26:00,34.2,15.0,29.76,North,360,0.0,2.0,46,0.00,,,0.00,0,weatherlink.com 1.10,2013-03-08 10:26:00,
2013-03-08 03:41:00,33.6,17.0,29.75,North,360,0.0,2.0,51,0.00,,,0.00,0,weatherlink.com 1.10,2013-03-08 10:41:00,
2013-03-08 03:56:00,33.0,17.0,29.75,North,360,0.0,1.0,52,0.00,,,0.00,0,weatherlink.com 1.10,2013-03-08 10:56:00,
2013-03-08 04:11:00,33.3,16.0,29.75,North,360,0.0,2.0,49,0.00,,,0.00,0,weatherlink.com 1.10,2013-03-08 11:11:00,
2013-03-08 04:27:00,32.7,16.0,29.75,North,360,0.0,2.0,50,0.00,,,0.00,0,weatherlink.com 1.10,2013-03-08 11:27:00,
2013-03-08 04:42:00,32.0,16.0,29.75,North,360,0.0,1.0,52,0.00,,,0.00,0,weatherlink.com 1.10,2013-03-08 11:42:00,
2013-03-08 04:57:00,30.7,16.0,29.75,North,360,0.0,2.0,54,0.00,,,0.00,0,weatherlink.com 1.10,2013-03-08 11:57:00,
2013-03-08 05:12:00,31.0,16.0,29.75,North,360,0.0,1.0,53,0.00,,,0.00,0,weatherlink.com 1.10,2013-03-08 12:12:00,
2013-03-08 05:27:00,32.3,16.0,29.75,North,360,0.0,2.0,51,0.00,,,0.00,0,weatherlink.com 1.10,2013-03-08 12:27:00,
2013-03-08 05:42:00,30.4,15.0,29.74,ESE,112,0.0,0.0,53,0.00,,,0.00,0,weatherlink.com 1.10,2013-03-08 12:42:00,
2013-03-08 05:57:00,31.3,16.0,29.75,ESE,111,0.0,0.0,53,0.00,,,0.00,0,weatherlink.com 1.10,2013-03-08 12:57:00,
2013-03-08 06:12:00,31.0,16.0,29.75,North,360,0.0,1.0,53,0.00,,,0.00,0,weatherlink.com 1.10,2013-03-08 13:12:00,
2013-03-08 06:27:00,32.5,15.0,29.76,North,360,0.0,2.0,49,0.00,,,0.00,7,weatherlink.com 1.10,2013-03-08 13:27:00,
2013-03-08 06:42:00,33.0,15.0,29.76,North,360,0.0,2.0,48,0.00,,,0.00,14,weatherlink.com 1.10,2013-03-08 13:42:00,
2013-03-08 06:57:00,33.0,17.0,29.76,North,360,1.0,2.0,52,0.00,,,0.00,28,weatherlink.com 1.10,2013-03-08 13:57:00,
2013-03-08 07:12:00,33.7,15.0,29.76,North,360,0.0,2.0,47,0.00,,,0.00,28,weatherlink.com 1.10,2013-03-08 14:12:00,
2013-03-08 07:27:00,33.3,15.0,29.76,North,360,0.0,1.0,48,0.00,,,0.00,44,weatherlink.com 1.10,2013-03-08 14:27:00,
2013-03-08 07:42:00,34.7,14.0,29.77,North,360,0.0,2.0,43,0.00,,,0.00,77,weatherlink.com 1.10,2013-03-08 14:42:00,
2013-03-08 07:57:00,35.8,14.0,29.76,North,360,0.0,1.0,41,0.00,,,0.00,54,weatherlink.com 1.10,2013-03-08 14:57:00,
2013-03-08 08:12:00,35.8,15.0,29.76,North,360,1.0,2.0,42,0.00,,,0.00,42,weatherlink.com 1.10,2013-03-08 15:12:00,
2013-03-08 08:27:00,36.9,15.0,29.76,North,360,1.0,2.0,40,0.00,,,0.00,51,weatherlink.com 1.10,2013-03-08 15:27:00,
2013-03-08 08:42:00,39.1,15.0,29.75,North,360,0.0,5.0,37,0.00,,,0.00,185,weatherlink.com 1.10,2013-03-08 15:42:00,
2013-03-08 08:57:00,39.5,14.0,29.74,North,360,1.0,3.0,36,0.00,,,0.00,396,weatherlink.com 1.10,2013-03-08 15:57:00,
2013-03-08 09:12:00,40.1,15.0,29.74,North,360,0.0,4.0,36,0.00,,,0.00,288,weatherlink.com 1.10,2013-03-08 16:12:00,
2013-03-08 09:27:00,40.8,17.0,29.74,North,360,2.0,7.0,39,0.00,,,0.00,320,weatherlink.com 1.10,2013-03-08 16:27:00,
2013-03-08 09:42:00,41.5,19.0,29.73,West,270,0.0,3.0,41,0.00,,,0.00,585,weatherlink.com 1.10,2013-03-08 16:42:00,
2013-03-08 09:57:00,42.3,16.0,29.72,WNW,301,0.0,3.0,34,0.00,,,0.00,547,weatherlink.com 1.10,2013-03-08 16:57:00,
2013-03-08 10:12:00,43.9,16.0,29.71,WNW,282,1.0,4.0,33,0.00,,,0.00,758,weatherlink.com 1.10,2013-03-08 17:12:00,
2013-03-08 10:27:00,44.3,17.0,29.70,NW,306,2.0,3.0,33,0.00,,,0.00,807,weatherlink.com 1.10,2013-03-08 17:27:00,
2013-03-08 10:42:00,45.3,17.0,29.69,West,265,2.0,4.0,32,0.00,,,0.00,619,weatherlink.com 1.10,2013-03-08 17:42:00,
2013-03-08 10:57:00,44.3,17.0,29.69,WSW,246,1.0,5.0,33,0.00,,,0.00,367,weatherlink.com 1.10,2013-03-08 17:57:00,
2013-03-08 11:12:00,43.5,16.0,29.68,SSW,213,2.0,3.0,33,0.00,,,0.00,299,weatherlink.com 1.10,2013-03-08 18:12:00,
2013-03-08 11:27:00,45.1,17.0,29.67,West,277,0.0,3.0,32,0.00,,,0.00,497,weatherlink.com 1.10,2013-03-08 18:27:00,
2013-03-08 11:42:00,44.7,16.0,29.66,West,264,1.0,5.0,32,0.00,,,0.00,366,weatherlink.com 1.10,2013-03-08 18:42:00,
2013-03-08 11:57:00,44.3,17.0,29.66,WSW,247,0.0,4.0,33,0.00,,,0.00,197,weatherlink.com 1.10,2013-03-08 18:57:00,
2013-03-08 12:13:00,44.9,15.0,29.65,WSW,258,6.0,8.0,30,0.00,,,0.00,383,weatherlink.com 1.10,2013-03-08 19:13:00,
2013-03-08 12:28:00,44.0,15.0,29.65,SW,230,3.0,7.0,31,0.00,,,0.00,236,weatherlink.com 1.10,2013-03-08 19:28:00,
2013-03-08 12:43:00,44.2,16.0,29.63,WNW,296,5.0,7.0,32,0.00,,,0.00,538,weatherlink.com 1.10,2013-03-08 19:43:00,
2013-03-08 12:58:00,45.5,18.0,29.62,West,264,2.0,11.0,33,0.00,,,0.00,452,weatherlink.com 1.10,2013-03-08 19:58:00,
2013-03-08 13:13:00,46.3,21.0,29.62,WSW,243,5.0,9.0,37,0.00,,,0.00,443,weatherlink.com 1.10,2013-03-08 20:13:00,
2013-03-08 13:28:00,46.2,18.0,29.60,West,262,6.0,7.0,32,0.00,,,0.00,656,weatherlink.com 1.10,2013-03-08 20:28:00,
2013-03-08 13:43:00,45.5,18.0,29.60,West,264,2.0,9.0,34,0.00,,,0.00,631,weatherlink.com 1.10,2013-03-08 20:43:00,
2013-03-08 13:58:00,45.7,21.0,29.59,SW,226,2.0,8.0,37,0.00,,,0.00,722,weatherlink.com 1.10,2013-03-08 20:58:00,
2013-03-08 14:13:00,43.6,19.0,29.60,West,278,3.0,7.0,37,0.00,,,0.00,186,weatherlink.com 1.10,2013-03-08 21:13:00,
2013-03-08 14:28:00,42.6,19.0,29.60,WSW,246,6.0,7.0,39,0.00,,,0.00,267,weatherlink.com 1.10,2013-03-08 21:28:00,
2013-03-08 14:43:00,41.6,22.0,29.59,North,360,1.0,5.0,45,0.00,,,0.00,125,weatherlink.com 1.10,2013-03-08 21:43:00,
2013-03-08 14:58:00,40.6,20.0,29.60,North,360,3.0,5.0,43,0.00,,,0.00,74,weatherlink.com 1.10,2013-03-08 21:58:00,
2013-03-08 15:13:00,39.6,21.0,29.60,North,360,1.0,4.0,48,0.00,,,0.00,90,weatherlink.com 1.10,2013-03-08 22:13:00,
2013-03-08 15:28:00,38.5,23.0,29.61,North,360,2.0,6.0,53,0.00,,,0.00,76,weatherlink.com 1.10,2013-03-08 22:28:00,
2013-03-08 15:43:00,37.6,24.0,29.63,North,360,1.0,6.0,58,0.00,,,0.00,51,weatherlink.com 1.10,2013-03-08 22:43:00,
2013-03-08 15:58:00,36.6,25.0,29.63,North,360,1.0,5.0,64,0.00,,,0.00,56,weatherlink.com 1.10,2013-03-08 22:58:00,
2013-03-08 16:13:00,34.8,27.0,29.62,North,360,1.0,6.0,72,0.00,,,0.00,30,weatherlink.com 1.10,2013-03-08 23:13:00,
2013-03-08 16:28:00,34.3,26.0,29.63,North,360,2.0,4.0,73,0.00,,,0.00,58,weatherlink.com 1.10,2013-03-08 23:28:00,
2013-03-08 16:43:00,34.4,26.0,29.62,North,360,0.0,5.0,72,0.00,,,0.00,23,weatherlink.com 1.10,2013-03-08 23:43:00,
2013-03-08 16:58:00,33.4,28.0,29.62,North,360,1.0,3.0,79,0.00,,,0.00,63,weatherlink.com 1.10,2013-03-08 23:58:00,
2013-03-08 17:13:00,33.1,27.0,29.62,North,360,1.0,2.0,79,0.00,,,0.00,5,weatherlink.com 1.10,2013-03-09 00:13:00,
2013-03-08 17:28:00,32.0,28.0,29.63,North,360,0.0,2.0,84,0.00,,,0.00,30,weatherlink.com 1.10,2013-03-09 00:28:00,
2013-03-08 17:43:00,31.1,27.0,29.60,North,360,0.0,0.0,86,0.00,,,0.00,11,weatherlink.com 1.10,2013-03-09 00:43:00,
2013-03-08 17:58:00,30.6,27.0,29.58,North,360,0.0,1.0,86,0.00,,,0.00,0,weatherlink.com 1.10,2013-03-09 00:58:00,
2013-03-08 18:13:00,30.0,27.0,29.59,North,360,0.0,1.0,88,0.00,,,0.00,0,weatherlink.com 1.10,2013-03-09 01:13:00,
2013-03-08 18:28:00,29.8,27.0,29.59,North,360,0.0,0.0,90,0.00,,,0.00,0,weatherlink.com 1.10,2013-03-09 01:28:00,
2013-03-08 18:43:00,29.3,27.0,29.59,North,360,0.0,0.0,90,0.00,,,0.00,0,weatherlink.com 1.10,2013-03-09 01:43:00,
2013-03-08 18:58:00,29.1,27.0,29.59,NW,317,0.0,0.0,90,0.00,,,0.00,0,weatherlink.com 1.10,2013-03-09 01:58:00,
2013-03-08 19:13:00,29.5,27.0,29.58,North,360,0.0,0.0,90,0.00,,,0.00,0,weatherlink.com 1.10,2013-03-09 02:13:00,
2013-03-08 19:28:00,30.1,28.0,29.59,North,360,1.0,1.0,90,0.00,,,0.00,0,weatherlink.com 1.10,2013-03-09 02:28:00,
2013-03-08 19:43:00,30.3,28.0,29.59,North,360,0.0,3.0,90,0.00,,,0.00,0,weatherlink.com 1.10,2013-03-09 02:43:00,
2013-03-08 19:58:00,30.4,28.0,29.59,North,360,0.0,4.0,91,0.00,,,0.00,0,weatherlink.com 1.10,2013-03-09 02:58:00,
2013-03-08 20:13:00,30.2,28.0,29.59,North,360,0.0,2.0,90,0.00,,,0.00,0,weatherlink.com 1.10,2013-03-09 03:13:00,
2013-03-08 20:28:00,30.3,28.0,29.60,North,360,0.0,1.0,90,0.00,,,0.00,0,weatherlink.com 1.10,2013-03-09 03:28:00,
2013-03-08 20:43:00,30.2,28.0,29.59,North,360,0.0,2.0,90,0.00,,,0.00,0,weatherlink.com 1.10,2013-03-09 03:43:00,
2013-03-08 20:58:00,29.5,27.0,29.57,North,360,0.0,0.0,90,0.00,,,0.00,0,weatherlink.com 1.10,2013-03-09 03:58:00,
2013-03-08 21:13:00,29.3,27.0,29.57,North,360,0.0,1.0,91,0.00,,,0.00,0,weatherlink.com 1.10,2013-03-09 04:13:00,
2013-03-08 21:28:00,29.5,28.0,29.59,ENE,72,0.0,0.0,92,0.00,,,0.00,0,weatherlink.com 1.10,2013-03-09 04:28:00,
2013-03-08 21:43:00,29.4,27.0,29.58,North,360,0.0,1.0,92,0.00,,,0.00,0,weatherlink.com 1.10,2013-03-09 04:43:00,
2013-03-08 21:58:00,28.5,27.0,29.57,North,360,0.0,0.0,92,0.00,,,0.00,0,weatherlink.com 1.10,2013-03-09 04:58:00,
2013-03-08 22:13:00,28.3,27.0,29.57,North,360,0.0,0.0,93,0.00,,,0.00,0,weatherlink.com 1.10,2013-03-09 05:13:00,
2013-03-08 22:28:00,28.6,27.0,29.57,ENE,68,0.0,0.0,92,0.00,,,0.00,0,weatherlink.com 1.10,2013-03-09 05:28:00,
2013-03-08 22:43:00,28.4,26.0,29.56,ENE,68,0.0,0.0,91,0.00,,,0.00,0,weatherlink.com 1.10,2013-03-09 05:43:00,
2013-03-08 22:58:00,28.1,26.0,29.55,North,360,0.0,0.0,92,0.00,,,0.00,0,weatherlink.com 1.10,2013-03-09 05:58:00,
2013-03-08 23:13:00,28.1,26.0,29.55,ENE,69,0.0,0.0,91,0.00,,,0.00,0,weatherlink.com 1.10,2013-03-09 06:13:00,
2013-03-08 23:28:00,28.7,25.0,29.54,North,360,2.0,2.0,87,0.00,,,0.00,0,weatherlink.com 1.10,2013-03-09 06:28:00,
2013-03-08 23:44:00,29.3,25.0,29.56,WSW,239,3.0,7.0,84,0.00,,,0.00,0,weatherlink.com 1.10,2013-03-09 06:44:00,
2013-03-08 23:59:00,28.3,26.0,29.56,West,279,2.0,11.0,90,0.00,,,0.00,0,weatherlink.com 1.10,2013-03-09 06:59:00,